createdAt,value
2023-01-23T00:01:24.355Z,5.80
2023-01-23T00:06:38.096Z,5.22
2023-01-23T00:11:51.800Z,4.93
2023-01-23T00:14:18.639Z,4.88
2023-01-23T00:16:45.397Z,5.20
2023-01-23T00:19:12.194Z,5.28
2023-01-23T00:21:38.970Z,5.18
2023-01-23T00:24:06.455Z,5.00
2023-01-23T00:26:33.280Z,4.45
2023-01-23T00:29:00.264Z,4.65
2023-01-23T00:31:34.066Z,5.57
2023-01-23T00:34:04.571Z,4.30
2023-01-23T00:39:22.592Z,5.22
2023-01-23T00:44:36.586Z,5.40
2023-01-23T00:49:50.118Z,6.22
2023-01-23T00:52:16.923Z,5.65
2023-01-23T00:54:43.678Z,5.32
2023-01-23T00:57:10.421Z,5.53
2023-01-23T00:59:37.279Z,4.63
2023-01-23T01:02:04.082Z,5.00
2023-01-23T01:04:30.865Z,5.03
2023-01-23T01:06:57.671Z,5.93
2023-01-23T01:09:24.494Z,5.93
2023-01-23T01:11:51.632Z,7.00
2023-01-23T01:14:18.559Z,6.30
2023-01-23T01:16:45.507Z,4.90
2023-01-23T01:19:17.917Z,5.53
2023-01-23T01:21:44.946Z,6.75
2023-01-23T01:24:11.923Z,5.53
2023-01-23T01:26:38.699Z,6.00
2023-01-23T01:29:05.467Z,7.80
2023-01-23T01:31:32.318Z,6.75
2023-01-23T01:33:59.129Z,6.65
2023-01-23T01:36:25.860Z,6.13
2023-01-23T01:38:56.275Z,5.03
2023-01-23T01:41:23.046Z,5.18
2023-01-23T01:43:49.898Z,6.18
2023-01-23T01:46:18.640Z,6.10
2023-01-23T01:48:48.387Z,5.35
2023-01-23T01:51:24.614Z,6.55
2023-01-23T01:53:59.040Z,6.53
2023-01-23T01:56:27.619Z,5.90
2023-01-23T01:58:55.182Z,5.70
2023-01-23T02:01:21.938Z,6.00
2023-01-23T02:03:50.961Z,7.80
2023-01-23T02:09:12.496Z,7.82
2023-01-23T02:11:39.321Z,6.32
2023-01-23T02:14:06.708Z,6.53
2023-01-23T02:16:37.065Z,6.97
2023-01-23T02:19:11.283Z,6.30
2023-01-23T02:21:39.895Z,7.10
2023-01-23T02:26:58.272Z,6.45
2023-01-23T02:31:51.779Z,6.80
2023-01-23T02:34:18.623Z,5.97
2023-01-23T02:39:36.191Z,5.95
2023-01-23T02:44:50.199Z,7.63
2023-01-23T02:47:17.003Z,7.30
2023-01-23T02:49:43.768Z,6.93
2023-01-23T02:52:10.664Z,6.90
2023-01-23T02:54:37.741Z,7.28
2023-01-23T02:57:04.541Z,6.22
2023-01-23T02:59:31.407Z,7.10
2023-01-23T03:01:58.337Z,8.32
2023-01-23T03:04:25.398Z,7.13
2023-01-23T03:06:52.225Z,7.20
2023-01-23T03:09:19.329Z,7.50
2023-01-23T03:11:47.138Z,8.35
2023-01-23T03:14:17.494Z,7.90
2023-01-23T03:16:44.670Z,8.32
2023-01-23T03:19:11.451Z,7.78
2023-01-23T03:21:40.361Z,7.10
2023-01-23T03:24:12.180Z,7.80
2023-01-23T03:26:44.134Z,7.90
2023-01-23T03:29:25.481Z,9.43
2023-01-23T03:31:52.692Z,8.75
2023-01-23T03:34:19.549Z,7.82
2023-01-23T03:36:46.321Z,7.70
2023-01-23T03:39:13.107Z,7.80
2023-01-23T03:41:39.920Z,8.75
2023-01-23T03:44:06.688Z,8.33
2023-01-23T03:46:33.517Z,9.75
2023-01-23T03:49:00.379Z,8.65
2023-01-23T03:51:27.163Z,10.02
2023-01-23T03:53:53.918Z,10.20
2023-01-23T03:56:20.681Z,10.23
2023-01-23T03:58:47.492Z,11.48
2023-01-23T04:04:01.168Z,11.63
2023-01-23T04:09:14.654Z,12.40
2023-01-23T04:11:41.420Z,11.60
2023-01-23T04:14:08.165Z,14.13
2023-01-23T04:16:34.968Z,14.23
2023-01-23T04:19:01.751Z,13.43
2023-01-23T04:21:28.513Z,13.10
2023-01-23T04:23:55.290Z,17.40
2023-01-23T04:26:22.087Z,14.13
2023-01-23T04:28:48.851Z,14.25
2023-01-23T04:31:15.804Z,14.40
2023-01-23T04:33:42.642Z,15.05
2023-01-23T04:36:10.659Z,14.68
2023-01-23T04:38:37.448Z,15.77
2023-01-23T04:41:04.522Z,16.08
2023-01-23T04:43:31.612Z,15.07
2023-01-23T04:45:58.537Z,15.00
2023-01-23T04:48:25.822Z,16.08
2023-01-23T04:50:52.646Z,15.55
2023-01-23T04:53:19.744Z,13.68
2023-01-23T04:55:49.301Z,15.05
2023-01-23T04:58:18.153Z,13.88
2023-01-23T05:00:45.310Z,15.50
2023-01-23T05:03:12.481Z,15.10
2023-01-23T05:05:39.285Z,14.55
2023-01-23T05:08:06.313Z,14.27
2023-01-23T05:10:33.069Z,15.52
2023-01-23T05:12:59.881Z,16.33
2023-01-23T05:15:26.725Z,15.35
2023-01-23T05:17:53.612Z,13.40
2023-01-23T05:20:21.308Z,16.35
2023-01-23T05:22:48.187Z,16.80
2023-01-23T05:25:15.060Z,14.07
2023-01-23T05:30:28.597Z,15.60
2023-01-23T05:32:55.389Z,15.82
2023-01-23T05:35:22.133Z,15.77
2023-01-23T05:37:51.210Z,13.37
2023-01-23T05:42:46.492Z,16.45
2023-01-23T05:45:13.524Z,14.82
2023-01-23T05:50:27.670Z,16.25
2023-01-23T05:52:54.415Z,19.73
2023-01-23T05:55:21.202Z,16.40
2023-01-23T05:57:48.031Z,17.10
2023-01-23T06:00:15.267Z,18.20
2023-01-23T06:02:42.252Z,15.90
2023-01-23T06:05:09.450Z,18.08
2023-01-23T06:07:36.535Z,17.05
2023-01-23T06:10:03.868Z,16.90
2023-01-23T06:12:30.674Z,16.70
2023-01-23T06:14:57.455Z,17.90
2023-01-23T06:20:11.541Z,16.08
2023-01-23T06:25:25.005Z,16.77
2023-01-23T06:30:38.442Z,15.57
2023-01-23T06:33:05.218Z,17.85
2023-01-23T06:35:32.016Z,17.40
2023-01-23T06:37:58.852Z,18.25
2023-01-23T06:40:25.608Z,22.40
2023-01-23T06:42:55.464Z,32.95
2023-01-23T06:45:22.649Z,22.75
2023-01-23T06:47:51.442Z,20.37
2023-01-23T06:50:18.707Z,54.58
2023-01-23T06:52:45.779Z,32.70
2023-01-23T06:55:14.585Z,28.23
2023-01-23T06:57:41.496Z,22.23
2023-01-23T07:00:09.302Z,23.33
2023-01-23T07:02:38.139Z,20.92
2023-01-23T07:05:05.312Z,21.15
2023-01-23T07:07:32.072Z,21.17
2023-01-23T07:09:58.835Z,59.63
2023-01-23T07:12:25.634Z,48.45
2023-01-23T07:14:52.388Z,23.90
2023-01-23T07:17:19.172Z,20.70
2023-01-23T07:19:45.923Z,40.45
2023-01-23T07:22:12.806Z,24.00
2023-01-23T07:24:39.604Z,24.33
2023-01-23T07:27:06.374Z,23.17
2023-01-23T07:29:33.116Z,23.20
2023-01-23T07:31:59.881Z,24.83
2023-01-23T07:36:53.829Z,21.77
2023-01-23T07:39:20.682Z,23.52
2023-01-23T07:41:47.468Z,21.53
2023-01-23T07:44:20.420Z,25.63
2023-01-23T07:46:48.208Z,26.05
2023-01-23T07:52:02.633Z,23.17
2023-01-23T07:57:16.174Z,24.97
2023-01-23T07:59:42.918Z,23.55
2023-01-23T08:02:12.569Z,25.23
2023-01-23T08:04:39.327Z,23.73
2023-01-23T08:07:06.484Z,24.02
2023-01-23T08:09:33.236Z,25.92
2023-01-23T08:11:59.989Z,24.05
2023-01-23T08:14:26.815Z,24.70
2023-01-23T08:16:53.937Z,27.83
2023-01-23T08:19:20.716Z,29.37
2023-01-23T08:21:47.643Z,25.25
2023-01-23T08:27:01.555Z,25.33
2023-01-23T08:32:14.966Z,26.30
2023-01-23T08:34:41.781Z,25.95
2023-01-23T08:37:08.632Z,28.70
2023-01-23T08:39:35.916Z,27.70
2023-01-23T08:42:02.639Z,27.93
2023-01-23T08:44:29.422Z,27.02
2023-01-23T08:46:56.198Z,23.77
2023-01-23T08:49:23.111Z,27.52
2023-01-23T08:51:49.826Z,27.92
2023-01-23T08:54:16.587Z,27.48
2023-01-23T08:56:46.480Z,25.95
2023-01-23T08:59:13.248Z,28.13
2023-01-23T09:01:39.996Z,27.60
2023-01-23T09:04:06.803Z,34.80
2023-01-23T09:09:20.246Z,42.88
2023-01-23T09:14:33.714Z,27.02
2023-01-23T09:17:00.470Z,27.52
2023-01-23T09:19:27.227Z,26.15
2023-01-23T09:21:54.428Z,28.23
2023-01-23T09:24:21.231Z,29.37
2023-01-23T09:26:47.998Z,27.10
2023-01-23T09:29:15.255Z,29.70
2023-01-23T09:31:42.057Z,28.90
2023-01-23T09:36:56.002Z,28.23
2023-01-23T09:42:23.097Z,30.02
2023-01-23T09:44:55.650Z,29.33
2023-01-23T09:50:54.489Z,30.73
2023-01-23T09:53:25.304Z,31.10
2023-01-23T09:56:04.294Z,32.70
2023-01-23T09:58:38.091Z,30.02
2023-01-23T10:01:05.137Z,30.90
2023-01-23T10:03:32.622Z,31.50
2023-01-23T10:06:11.704Z,29.70
2023-01-23T10:08:55.645Z,31.20
2023-01-23T10:11:46.983Z,32.90
2023-01-23T10:14:32.268Z,30.55
2023-01-23T10:16:53.263Z,0
2023-01-23T10:17:17.225Z,34.80
2023-01-23T10:18:00.250Z,0
2023-01-23T10:20:16.607Z,32.85
2023-01-23T10:22:25.701Z,0
2023-01-23T10:23:04.920Z,33.25
2023-01-23T10:24:41.812Z,0
2023-01-23T10:25:35.665Z,32.65
2023-01-23T10:28:35.707Z,33.17
2023-01-23T10:31:39.815Z,33.85
2023-01-23T10:34:38.088Z,33.67
2023-01-23T10:36:54.633Z,0
2023-01-23T10:37:18.417Z,35.80
2023-01-23T10:40:03.146Z,39.80
2023-01-23T10:42:30.033Z,43.75
2023-01-23T10:44:56.785Z,42.60
2023-01-23T10:47:49.888Z,42.92
2023-01-23T10:50:35.359Z,46.47
2023-01-23T10:53:19.085Z,43.63
2023-01-23T10:54:33.341Z,0
2023-01-23T10:55:46.491Z,39.28
2023-01-23T10:58:42.822Z,41.43
2023-01-23T11:01:30.817Z,38.03
2023-01-23T11:04:02.568Z,36.70
2023-01-23T11:06:29.390Z,38.13
2023-01-23T11:08:59.027Z,36.67
2023-01-23T11:11:28.469Z,37.67
2023-01-23T11:14:21.044Z,33.70
2023-01-23T11:17:13.820Z,39.83
2023-01-23T11:19:42.045Z,34.97
2023-01-23T11:22:28.407Z,35.97
2023-01-23T11:24:55.223Z,33.53
2023-01-23T11:36:41.599Z,32.97
2023-01-23T11:39:46.900Z,34.67
2023-01-23T11:44:41.468Z,0
2023-01-23T11:45:02.071Z,34.35
2023-01-23T11:47:50.424Z,39.22
2023-01-23T11:50:29.035Z,34.08
2023-01-23T11:53:42.369Z,32.30
2023-01-23T11:58:51.820Z,0
2023-01-23T11:59:30.482Z,31.80
2023-01-23T12:05:12.554Z,30.55
2023-01-23T12:08:09.645Z,26.83
2023-01-23T12:11:04.384Z,27.85
2023-01-23T12:20:24.052Z,24.23
2023-01-23T12:22:56.523Z,26.45
2023-01-23T12:25:37.384Z,25.15
2023-01-23T12:32:00.278Z,23.27
2023-01-23T12:37:33.426Z,0
2023-01-23T12:38:14.777Z,23.85
2023-01-23T12:44:02.064Z,22.27
2023-01-23T12:46:39.401Z,21.30
2023-01-23T12:49:38.925Z,20.25
2023-01-23T12:52:22.552Z,20.77
2023-01-23T12:55:03.230Z,19.70
2023-01-23T12:57:45.880Z,20.15
2023-01-23T12:58:11.791Z,0
2023-01-23T13:03:27.355Z,19.85
2023-01-23T13:03:48.902Z,0
2023-01-23T13:09:17.943Z,19.52
2023-01-23T13:12:14.059Z,18.75
2023-01-23T13:15:00.691Z,17.25
2023-01-23T13:15:41.481Z,0
2023-01-23T13:20:39.199Z,18.17
2023-01-23T13:22:19.056Z,0
2023-01-23T13:26:20.483Z,20.65
2023-01-23T13:31:45.449Z,17.50
2023-01-23T13:34:18.203Z,17.73
2023-01-23T13:36:49.747Z,17.55
2023-01-23T13:39:16.572Z,18.20
2023-01-23T13:41:45.804Z,18.17
2023-01-23T13:44:23.031Z,18.00
2023-01-23T14:20:24.554Z,15.38
2023-01-23T14:22:54.962Z,16.40
2023-01-23T14:25:22.281Z,15.00
2023-01-23T14:27:53.989Z,16.37
2023-01-23T14:27:54.255Z,0
2023-01-23T14:30:25.740Z,15.93
2023-01-23T14:32:52.544Z,14.13
2023-01-23T14:38:29.158Z,26.50
2023-01-23T14:39:56.695Z,0
2023-01-23T14:40:58.942Z,23.90
2023-01-23T14:42:25.538Z,0
2023-01-23T14:43:29.069Z,22.47
2023-01-23T14:46:12.374Z,17.17
2023-01-23T14:48:08.110Z,0
2023-01-23T14:48:41.812Z,16.92
2023-01-23T14:49:11.876Z,0
2023-01-23T14:54:22.903Z,16.40
2023-01-23T14:54:54.312Z,0
2023-01-23T14:56:51.158Z,16.67
2023-01-23T14:59:32.443Z,16.02
2023-01-23T15:02:13.082Z,15.57
2023-01-23T15:04:43.223Z,15.70
2023-01-23T15:07:16.765Z,15.38
2023-01-23T15:09:44.057Z,16.30
2023-01-23T15:12:18.595Z,17.67
2023-01-23T15:14:45.891Z,16.77
2023-01-23T15:17:19.850Z,17.27
2023-01-23T15:19:52.427Z,20.42
2023-01-23T15:28:39.693Z,17.58
2023-01-23T15:31:21.237Z,16.67
2023-01-23T15:33:48.083Z,17.83
2023-01-23T15:36:29.405Z,19.50
2023-01-23T15:38:58.710Z,16.70
2023-01-23T15:41:37.437Z,0
2023-01-23T15:41:49.794Z,17.38
2023-01-23T15:44:19.245Z,19.08
2023-01-23T15:46:46.046Z,19.38
2023-01-23T15:49:23.853Z,19.88
2023-01-23T15:51:52.217Z,17.88
2023-01-23T15:57:13.265Z,17.63
2023-01-23T16:02:32.555Z,17.45
2023-01-23T16:05:00.288Z,16.83
2023-01-23T16:07:34.682Z,16.83
2023-01-23T16:10:23.883Z,23.65
2023-01-23T16:12:53.653Z,21.55
2023-01-23T16:15:22.104Z,19.73
2023-01-23T16:20:43.791Z,15.40
2023-01-23T16:23:22.443Z,17.40
2023-01-23T16:25:49.747Z,15.52
2023-01-23T16:25:49.755Z,0
2023-01-23T16:28:21.981Z,17.38
2023-01-23T16:29:16.216Z,0
2023-01-23T16:30:50.039Z,16.20
2023-01-23T16:33:17.197Z,16.85
2023-01-23T16:38:31.442Z,18.10
2023-01-23T16:43:46.759Z,15.98
2023-01-23T16:48:31.618Z,0
2023-01-23T16:49:00.591Z,18.40
2023-01-23T16:49:56.460Z,0
2023-01-23T16:51:27.389Z,17.48
2023-01-23T16:53:57.513Z,17.98
2023-01-23T16:56:36.609Z,16.17
2023-01-23T16:59:08.419Z,15.20
2023-01-23T17:01:39.821Z,17.65
2023-01-23T17:04:06.809Z,17.95
2023-01-23T17:06:33.558Z,16.10
2023-01-23T17:09:00.327Z,17.53
2023-01-23T17:11:36.132Z,17.17
2023-01-23T17:14:06.749Z,16.90
2023-01-23T17:19:32.601Z,22.67
2023-01-23T17:22:01.367Z,17.08
2023-01-23T17:24:28.817Z,19.98
2023-01-23T17:26:55.602Z,18.77
2023-01-23T17:34:53.114Z,0
2023-01-23T17:35:36.294Z,20.33
2023-01-23T17:38:03.864Z,21.85
2023-01-23T17:40:31.337Z,24.50
2023-01-23T17:42:58.294Z,21.90
2023-01-23T17:45:27.584Z,26.38
2023-01-23T17:47:55.506Z,35.10
2023-01-23T17:50:25.190Z,37.50
2023-01-23T17:52:53.515Z,22.93
2023-01-23T17:55:22.624Z,22.73
2023-01-23T17:57:49.713Z,24.35
2023-01-23T18:03:09.022Z,24.20
2023-01-23T18:07:56.996Z,0
2023-01-23T18:08:22.659Z,24.43
2023-01-23T18:10:52.973Z,24.65
2023-01-23T18:13:28.494Z,31.67
2023-01-23T18:16:07.492Z,53.05
2023-01-23T18:21:23.761Z,30.65
2023-01-23T18:26:56.980Z,34.95
2023-01-23T18:29:39.055Z,30.88
2023-01-23T18:32:33.112Z,30.98
2023-01-23T18:35:54.047Z,29.35
2023-01-23T18:38:36.393Z,29.53
2023-01-23T18:41:23.217Z,29.27
2023-01-23T18:44:18.327Z,27.30
2023-01-23T18:46:45.322Z,27.67
2023-01-23T18:48:27.609Z,0
2023-01-23T18:49:14.924Z,28.20
2023-01-23T18:52:14.978Z,30.70
2023-01-23T18:55:07.420Z,42.20
2023-01-23T18:57:52.228Z,35.40
2023-01-23T19:00:35.983Z,32.47
2023-01-23T19:03:17.359Z,31.88
2023-01-23T19:05:45.205Z,33.15
2023-01-23T19:08:30.607Z,29.33
2023-01-23T19:11:04.466Z,31.67
2023-01-23T19:13:37.008Z,30.97
2023-01-23T19:16:06.672Z,30.45
2023-01-23T19:18:47.641Z,31.48
2023-01-23T19:21:18.834Z,31.83
2023-01-23T19:24:06.259Z,29.80
2023-01-23T19:26:39.112Z,31.95
2023-01-23T19:29:20.370Z,34.13
2023-01-23T19:32:04.650Z,33.08
2023-01-23T19:34:33.118Z,30.88
2023-01-23T19:36:59.883Z,31.73
2023-01-23T19:39:26.713Z,35.20
2023-01-23T19:41:53.598Z,35.10
2023-01-23T19:43:17.050Z,0
2023-01-23T19:47:09.064Z,34.88
2023-01-23T19:49:35.808Z,37.72
2023-01-23T19:52:02.569Z,37.03
2023-01-23T19:54:29.387Z,45.58
2023-01-23T19:56:56.122Z,36.60
2023-01-23T19:59:23.117Z,37.80
2023-01-23T20:01:51.947Z,34.05
2023-01-23T20:04:21.536Z,40.55
2023-01-23T20:06:49.020Z,34.77
2023-01-23T20:09:15.921Z,37.80
2023-01-23T20:11:43.629Z,40.25
2023-01-23T20:14:10.962Z,37.13
2023-01-23T20:16:37.786Z,36.63
2023-01-23T20:19:04.546Z,37.35
2023-01-23T20:23:58.030Z,35.93
2023-01-23T20:26:24.848Z,37.45
2023-01-23T20:31:39.683Z,43.53
2023-01-23T20:36:53.342Z,32.25
2023-01-23T20:39:20.246Z,36.28
2023-01-23T20:41:48.031Z,34.70
2023-01-23T20:44:15.030Z,32.80
2023-01-23T20:46:41.852Z,31.67
2023-01-23T20:49:13.269Z,31.15
2023-01-23T20:51:40.183Z,33.13
2023-01-23T20:56:54.261Z,29.67
2023-01-23T20:59:22.035Z,32.45
2023-01-23T21:01:48.953Z,33.63
2023-01-23T21:04:15.732Z,36.15
2023-01-23T21:06:42.509Z,42.78
2023-01-23T21:09:09.261Z,29.30
2023-01-23T21:11:36.041Z,32.78
2023-01-23T21:14:02.896Z,31.35
2023-01-23T21:16:29.834Z,31.08
2023-01-23T21:18:56.727Z,32.50
2023-01-23T21:21:23.652Z,28.02
2023-01-23T21:26:37.744Z,28.23
2023-01-23T21:31:52.323Z,30.02
2023-01-23T21:34:19.177Z,27.65
2023-01-23T21:36:45.945Z,33.05
2023-01-23T21:39:14.380Z,32.90
2023-01-23T21:41:41.235Z,29.80
2023-01-23T21:44:10.151Z,32.53
2023-01-23T21:46:37.284Z,31.55
2023-01-23T21:49:04.303Z,31.60
2023-01-23T21:51:31.106Z,30.48
2023-01-23T21:53:58.002Z,31.52
2023-01-23T21:56:24.860Z,30.83
2023-01-23T21:58:51.652Z,26.63
2023-01-23T22:01:24.606Z,29.95
2023-01-23T22:03:52.408Z,27.27
2023-01-23T22:06:19.456Z,27.92
2023-01-23T22:08:46.408Z,31.38
2023-01-23T22:11:13.349Z,28.90
2023-01-23T22:13:40.231Z,28.90
2023-01-23T22:16:07.335Z,27.48
2023-01-23T22:16:53.441Z,0
2023-01-23T22:18:34.600Z,29.55
2023-01-23T22:21:04.295Z,30.27
2023-01-23T22:23:31.810Z,28.48
2023-01-23T22:26:01.892Z,29.65
2023-01-23T22:28:29.045Z,26.33
2023-01-23T22:30:56.582Z,27.33
2023-01-23T22:33:24.015Z,25.50
2023-01-23T22:35:52.483Z,29.55
2023-01-23T22:38:19.331Z,29.23
2023-01-23T22:40:46.084Z,27.58
2023-01-23T22:43:12.869Z,29.48
2023-01-23T22:45:39.645Z,27.70
2023-01-23T22:48:06.624Z,26.42
2023-01-23T22:50:33.428Z,29.65
2023-01-23T22:53:00.216Z,29.25
2023-01-23T22:55:26.986Z,28.60
2023-01-23T22:57:54.125Z,32.72
2023-01-23T23:03:08.125Z,25.77
2023-01-23T23:08:21.852Z,26.73
2023-01-23T23:11:08.595Z,28.65
2023-01-23T23:13:37.557Z,25.48
2023-01-23T23:18:56.956Z,26.05
2023-01-23T23:21:26.602Z,27.27
2023-01-23T23:23:56.255Z,25.30
2023-01-23T23:26:23.541Z,25.90
2023-01-23T23:28:50.664Z,29.10
2023-01-23T23:31:17.516Z,26.40
2023-01-23T23:33:44.607Z,23.83
2023-01-23T23:38:58.322Z,24.55
2023-01-23T23:44:12.071Z,26.15
2023-01-23T23:49:25.509Z,28.10
2023-01-23T23:54:39.485Z,23.42
2023-01-23T23:57:06.394Z,23.52
2023-01-23T23:59:33.414Z,26.97
